Terminal Aerodrome Forecast
Issued by NWS

Home | Current Version | Previous Version | Graphics & Text | Print | Product List | Glossary On
Versions: 1 2 3 4 5 6 7 8 9 10 11 12 13 14 15 16 17 18 19 20 21 22 23 24 25
000
FTUS43 KLOT 091326 AAA
TAFORD
TAF AMD
KORD 091326Z 0913/1018 32014G22KT P6SM -SHSN BKN015 BKN020
      TEMPO 0913/0915 3SM -SN
     FM091500 33018G28KT P6SM BKN025 OVC040
     FM100000 27009KT P6SM BKN100=

USA.gov is the U.S. government's official web portal to all federal, state and local government web resources and services.